createdAt,value
2022-08-25T00:01:27.524Z,10.80
2022-08-25T00:06:23.982Z,13.50
2022-08-25T00:11:23.704Z,10.40
2022-08-25T00:16:25.532Z,11.10
2022-08-25T00:21:25.190Z,14.00
2022-08-25T00:26:23.875Z,14.00
2022-08-25T00:31:23.757Z,12.00
2022-08-25T00:36:23.557Z,16.30
2022-08-25T00:41:26.692Z,16.70
2022-08-25T00:46:26.255Z,14.10
2022-08-25T00:51:31.468Z,14.50
2022-08-25T00:56:24.048Z,12.80
2022-08-25T01:01:23.604Z,20.10
2022-08-25T01:06:23.822Z,18.00
2022-08-25T01:11:23.702Z,15.70
2022-08-25T01:16:26.307Z,18.30
2022-08-25T01:21:25.589Z,19.90
2022-08-25T01:26:30.537Z,14.60
2022-08-25T01:31:24.462Z,14.70
2022-08-25T01:36:25.972Z,18.20
2022-08-25T01:41:34.600Z,17.50
2022-08-25T01:46:23.813Z,15.30
2022-08-25T01:51:27.564Z,17.50
2022-08-25T01:56:23.582Z,16.20
2022-08-25T02:01:24.260Z,22.40
2022-08-25T02:06:28.902Z,18.90
2022-08-25T02:11:24.912Z,23.60
2022-08-25T02:16:27.459Z,23.60
2022-08-25T02:21:24.020Z,22.30
2022-08-25T02:26:23.888Z,20.30
2022-08-25T02:31:25.198Z,21.80
2022-08-25T02:36:23.792Z,25.70
2022-08-25T02:41:30.976Z,21.00
2022-08-25T02:46:23.985Z,22.00
2022-08-25T02:51:24.502Z,25.50
2022-08-25T02:56:25.843Z,27.00
2022-08-25T03:01:28.443Z,21.20
2022-08-25T03:06:24.090Z,24.30
2022-08-25T03:11:24.612Z,22.30
2022-08-25T03:16:24.403Z,24.70
2022-08-25T03:21:23.901Z,23.10
2022-08-25T03:26:33.860Z,20.80
2022-08-25T03:31:26.566Z,27.10
2022-08-25T03:36:24.357Z,23.10
2022-08-25T03:41:28.076Z,23.10
2022-08-25T03:46:25.583Z,23.90
2022-08-25T03:51:26.851Z,29.70
2022-08-25T03:56:23.743Z,25.60
2022-08-25T04:01:24.595Z,17.70
2022-08-25T04:06:23.326Z,24.20
2022-08-25T04:11:27.503Z,26.40
2022-08-25T04:16:27.083Z,25.30
2022-08-25T04:21:24.729Z,29.20
2022-08-25T04:26:26.895Z,27.30
2022-08-25T04:31:23.647Z,30.70
2022-08-25T04:36:23.857Z,25.70
2022-08-25T04:41:24.417Z,32.30
2022-08-25T04:46:27.812Z,28.50
2022-08-25T04:51:25.620Z,28.50
2022-08-25T04:56:24.236Z,33.60
2022-08-25T05:01:25.259Z,32.50
2022-08-25T05:06:24.237Z,28.90
2022-08-25T05:11:24.695Z,35.00
2022-08-25T05:16:25.288Z,28.30
2022-08-25T05:21:26.190Z,37.00
2022-08-25T05:26:25.276Z,36.90
2022-08-25T05:31:25.347Z,35.30
2022-08-25T05:36:25.720Z,33.70
2022-08-25T05:41:27.410Z,31.50
2022-08-25T05:46:23.466Z,35.90
2022-08-25T05:51:23.523Z,32.30
2022-08-25T05:56:23.479Z,33.70
2022-08-25T06:01:36.286Z,40.50
2022-08-25T06:06:24.702Z,34.80
2022-08-25T06:11:23.455Z,34.40
2022-08-25T06:16:23.373Z,38.80
2022-08-25T06:21:23.970Z,33.90
2022-08-25T06:26:24.433Z,38.70
2022-08-25T06:31:29.156Z,33.90
2022-08-25T06:36:23.314Z,37.90
2022-08-25T06:41:24.819Z,41.80
2022-08-25T06:46:35.867Z,34.10
2022-08-25T06:51:25.399Z,38.80
2022-08-25T06:56:24.059Z,36.90
2022-08-25T07:01:26.233Z,31.30
2022-08-25T07:06:24.776Z,31.10
2022-08-25T07:11:24.071Z,37.70
2022-08-25T07:16:23.787Z,38.30
2022-08-25T07:21:25.810Z,36.00
2022-08-25T07:25:53.127Z,36.00
2022-08-25T07:26:37.245Z,33.00
2022-08-25T07:31:29.562Z,29.50
2022-08-25T07:36:03.179Z,38.00
2022-08-25T07:36:23.379Z,38.00
2022-08-25T07:41:23.666Z,30.20
2022-08-25T07:41:28.000Z,30.20
2022-08-25T07:45:48.503Z,30.20
2022-08-25T07:46:23.620Z,26.80
2022-08-25T07:51:23.699Z,33.80
2022-08-25T07:56:23.240Z,34.80
2022-08-25T08:01:24.786Z,28.50
2022-08-25T08:06:25.155Z,27.70
2022-08-25T08:11:14.088Z,28.10
2022-08-25T08:11:26.394Z,28.10
2022-08-25T08:13:50.887Z,28.10
2022-08-25T08:16:25.924Z,30.80
2022-08-25T08:21:26.673Z,31.80
2022-08-25T08:26:31.696Z,24.00
2022-08-25T08:31:26.087Z,30.80
2022-08-25T08:36:25.452Z,32.80
2022-08-25T08:42:09.669Z,32.70
2022-08-25T08:46:31.254Z,28.30
2022-08-25T08:51:30.557Z,28.60
2022-08-25T08:56:30.934Z,32.40
2022-08-25T09:01:27.407Z,27.90
2022-08-25T09:05:48.667Z,27.90
2022-08-25T09:06:29.638Z,27.00
2022-08-25T09:09:35.973Z,27.00
2022-08-25T09:11:36.329Z,28.40
2022-08-25T09:16:41.037Z,25.90
2022-08-25T09:21:33.175Z,27.80
2022-08-25T09:25:52.611Z,27.80
2022-08-25T09:26:31.625Z,23.50
2022-08-25T09:29:16.665Z,23.50
2022-08-25T09:31:00.115Z,20.90
2022-08-25T09:31:29.595Z,20.90
2022-08-25T09:33:30.243Z,20.90
2022-08-25T09:34:31.531Z,20.90
2022-08-25T09:36:24.649Z,19.60
2022-08-25T09:37:25.967Z,19.60
2022-08-25T09:41:39.476Z,16.50
2022-08-25T09:43:08.125Z,16.50
2022-08-25T09:46:00.188Z,20.50
2022-08-25T09:46:27.141Z,20.50
2022-08-25T09:49:12.315Z,20.50
2022-08-25T09:50:47.274Z,20.50
2022-08-25T09:51:27.362Z,18.40
2022-08-25T09:56:26.627Z,17.50
2022-08-25T09:57:29.742Z,17.50
2022-08-25T10:01:23.356Z,15.20
2022-08-25T10:06:25.102Z,14.00
2022-08-25T10:11:41.206Z,10.30
2022-08-25T10:11:46.427Z,10.30
2022-08-25T10:11:47.614Z,10.30
2022-08-25T10:16:28.628Z,16.50
2022-08-25T10:21:23.580Z,8.10
2022-08-25T10:26:37.421Z,13.60
2022-08-25T10:31:28.482Z,12.00
2022-08-25T10:36:37.226Z,10.70
2022-08-25T10:41:33.717Z,9.40
2022-08-25T10:41:45.554Z,9.40
2022-08-25T10:41:53.650Z,9.40
2022-08-25T10:46:34.123Z,13.40
2022-08-25T10:51:35.633Z,15.10
2022-08-25T10:56:28.459Z,12.20
2022-08-25T11:01:42.895Z,14.50
2022-08-25T11:06:32.887Z,9.90
2022-08-25T11:11:28.286Z,9.20
2022-08-25T11:16:33.882Z,8.90
2022-08-25T11:21:30.978Z,10.00
2022-08-25T11:26:36.125Z,5.80
2022-08-25T11:31:24.669Z,11.90
2022-08-25T11:36:29.452Z,10.60
2022-08-25T11:41:27.988Z,11.40
2022-08-25T11:46:30.933Z,13.20
2022-08-25T11:51:33.667Z,6.70
2022-08-25T11:56:32.570Z,9.70
2022-08-25T12:01:42.888Z,9.60
2022-08-25T12:06:28.849Z,10.60
2022-08-25T12:11:42.952Z,7.20
2022-08-25T12:16:37.301Z,11.50
2022-08-25T12:21:32.672Z,8.40
2022-08-25T12:26:35.208Z,9.10
2022-08-25T12:31:38.098Z,11.80
2022-08-25T12:36:27.191Z,8.50
2022-08-25T12:41:26.471Z,8.20
2022-08-25T12:46:34.509Z,10.90
2022-08-25T12:51:25.867Z,6.70
2022-08-25T12:52:17.623Z,6.70
2022-08-25T12:54:16.006Z,6.70
2022-08-25T12:56:30.610Z,11.70
2022-08-25T12:56:47.797Z,11.70
2022-08-25T12:59:00.483Z,11.70
2022-08-25T13:01:36.759Z,9.60
2022-08-25T13:04:29.768Z,9.60
2022-08-25T13:06:08.869Z,7.50
2022-08-25T13:06:33.552Z,7.50
2022-08-25T13:08:03.801Z,7.50
2022-08-25T13:10:15.284Z,7.50
2022-08-25T13:11:29.868Z,9.90
2022-08-25T13:15:59.464Z,11.00
2022-08-25T13:16:29.611Z,11.00
2022-08-25T13:19:26.849Z,11.00
2022-08-25T13:21:28.685Z,11.00
2022-08-25T13:22:58.340Z,11.00
2022-08-25T13:24:18.790Z,11.00
2022-08-25T13:26:25.407Z,9.60
2022-08-25T13:31:27.197Z,11.30
2022-08-25T13:36:34.637Z,9.20
2022-08-25T13:39:52.720Z,9.20
2022-08-25T13:41:28.709Z,11.40
2022-08-25T13:46:22.590Z,5.20
2022-08-25T13:46:23.792Z,5.20
2022-08-25T13:49:25.606Z,5.20
2022-08-25T13:51:31.068Z,8.00
2022-08-25T13:53:51.817Z,8.00
2022-08-25T13:55:20.871Z,8.00
2022-08-25T13:56:27.841Z,7.80
2022-08-25T13:57:22.429Z,7.80
2022-08-25T13:59:40.274Z,7.80
2022-08-25T14:01:49.317Z,6.20
2022-08-25T14:06:25.665Z,7.40
2022-08-25T14:11:29.626Z,5.30
2022-08-25T14:16:25.330Z,8.40
2022-08-25T14:21:26.412Z,9.30
2022-08-25T14:26:24.234Z,7.70
2022-08-25T14:26:36.202Z,7.70
2022-08-25T14:31:27.407Z,10.80
2022-08-25T14:34:35.583Z,10.80
2022-08-25T14:36:23.402Z,12.00
2022-08-25T14:39:12.024Z,12.00
2022-08-25T14:41:25.557Z,12.10
2022-08-25T14:46:26.802Z,9.00
2022-08-25T14:51:25.118Z,6.40
2022-08-25T14:56:23.378Z,8.10
2022-08-25T14:59:05.387Z,8.10
2022-08-25T15:01:29.278Z,10.60
2022-08-25T15:05:47.901Z,13.50
2022-08-25T15:06:23.016Z,13.50
2022-08-25T15:11:24.092Z,10.00
2022-08-25T15:16:34.055Z,10.00
2022-08-25T15:21:22.984Z,12.50
2022-08-25T15:25:56.597Z,6.70
2022-08-25T15:26:23.833Z,6.70
2022-08-25T15:28:50.306Z,6.70
2022-08-25T15:30:45.674Z,11.00
2022-08-25T15:31:23.485Z,11.00
2022-08-25T15:34:25.264Z,11.00
2022-08-25T15:36:24.801Z,15.70
2022-08-25T15:41:25.104Z,8.80
2022-08-25T15:45:39.410Z,8.40
2022-08-25T15:46:25.179Z,8.40
2022-08-25T15:48:06.890Z,8.40
2022-08-25T15:51:23.058Z,8.40
2022-08-25T15:56:26.709Z,13.40
2022-08-25T15:59:30.367Z,13.40
2022-08-25T16:01:25.484Z,11.00
2022-08-25T16:06:24.229Z,8.00
2022-08-25T16:11:25.947Z,6.60
2022-08-25T16:16:25.628Z,7.70
2022-08-25T16:21:25.849Z,11.10
2022-08-25T16:26:23.440Z,12.10
2022-08-25T16:31:23.427Z,10.70
2022-08-25T16:36:24.660Z,9.00
2022-08-25T16:41:26.175Z,11.40
2022-08-25T16:46:23.904Z,10.20
2022-08-25T16:51:29.529Z,10.10
2022-08-25T16:56:23.654Z,10.20
2022-08-25T17:01:24.783Z,14.50
2022-08-25T17:06:25.313Z,9.00
2022-08-25T17:11:25.999Z,13.30
2022-08-25T17:16:26.906Z,12.10
2022-08-25T17:19:06.675Z,12.10
2022-08-25T17:21:25.820Z,9.50
2022-08-25T17:26:27.488Z,10.90
2022-08-25T17:31:23.170Z,9.10
2022-08-25T17:36:27.118Z,8.40
2022-08-25T17:40:12.245Z,9.50
2022-08-25T17:41:23.255Z,9.50
2022-08-25T17:42:43.062Z,9.50
2022-08-25T17:46:17.141Z,8.70
2022-08-25T17:46:23.275Z,8.70
2022-08-25T17:47:14.160Z,8.70
2022-08-25T17:51:23.232Z,11.80
2022-08-25T17:54:24.054Z,11.80
2022-08-25T17:56:24.280Z,11.10
2022-08-25T17:58:56.085Z,11.10
2022-08-25T18:01:25.184Z,13.40
2022-08-25T18:04:17.598Z,13.40
2022-08-25T18:05:48.922Z,8.90
2022-08-25T18:06:24.192Z,8.90
2022-08-25T18:07:07.100Z,8.90
2022-08-25T18:11:23.525Z,9.70
2022-08-25T18:12:02.465Z,9.70
2022-08-25T18:16:24.028Z,7.40
2022-08-25T18:16:31.271Z,7.40
2022-08-25T18:18:41.549Z,7.40
2022-08-25T18:21:24.320Z,14.50
2022-08-25T18:26:14.365Z,11.50
2022-08-25T18:26:25.467Z,11.50
2022-08-25T18:29:15.410Z,11.50
2022-08-25T18:31:23.044Z,13.00
2022-08-25T18:36:22.932Z,18.10
2022-08-25T18:36:23.549Z,18.10
2022-08-25T18:38:42.907Z,18.10
2022-08-25T18:41:23.295Z,13.80
2022-08-25T18:41:41.899Z,13.80
2022-08-25T18:46:23.122Z,13.60
2022-08-25T18:49:17.511Z,13.60
2022-08-25T18:51:23.434Z,13.30
2022-08-25T18:53:36.681Z,13.30
2022-08-25T18:56:24.834Z,11.00
2022-08-25T18:56:47.105Z,11.00
2022-08-25T19:01:12.192Z,12.60
2022-08-25T19:01:23.020Z,12.60
2022-08-25T19:04:45.033Z,12.60
2022-08-25T19:06:23.096Z,13.70
2022-08-25T19:11:23.127Z,16.60
2022-08-25T19:16:34.150Z,15.30
2022-08-25T19:16:38.975Z,15.30
2022-08-25T19:16:41.300Z,15.30
2022-08-25T19:21:12.372Z,14.90
2022-08-25T19:21:22.924Z,14.90
2022-08-25T19:25:12.080Z,13.30
2022-08-25T19:26:23.069Z,13.30
2022-08-25T19:29:09.596Z,13.30
2022-08-25T19:31:24.700Z,14.10
2022-08-25T19:35:50.693Z,15.10
2022-08-25T19:36:28.057Z,15.10
2022-08-25T19:37:04.482Z,15.10
2022-08-25T19:41:24.011Z,15.50
2022-08-25T19:46:23.604Z,15.40
2022-08-25T19:51:24.156Z,14.30
2022-08-25T19:56:23.076Z,15.30
2022-08-25T19:59:47.728Z,23.60
2022-08-25T20:01:23.096Z,23.60
2022-08-25T20:04:43.065Z,20.10
2022-08-25T20:06:23.368Z,20.10
2022-08-25T20:11:03.634Z,16.70
2022-08-25T20:11:23.854Z,16.70
2022-08-25T20:14:03.484Z,16.70
2022-08-25T20:16:23.174Z,20.20
2022-08-25T20:21:23.242Z,22.30
2022-08-25T20:26:22.912Z,14.20
2022-08-25T20:29:36.396Z,19.20
2022-08-25T20:31:23.147Z,19.20
2022-08-25T20:31:48.004Z,19.20
2022-08-25T20:34:02.836Z,19.20
2022-08-25T20:36:22.980Z,16.60
2022-08-25T20:37:57.500Z,16.60
2022-08-25T20:40:34.123Z,15.80
2022-08-25T20:41:23.238Z,15.80
2022-08-25T20:46:23.316Z,16.90
2022-08-25T20:51:24.492Z,19.80
2022-08-25T20:56:23.163Z,17.30
2022-08-25T21:01:35.992Z,14.70
2022-08-25T21:01:36.862Z,14.70
2022-08-25T21:01:37.853Z,14.70
2022-08-25T21:03:36.189Z,14.70
2022-08-25T21:05:04.040Z,15.40
2022-08-25T21:06:22.892Z,15.40
2022-08-25T21:06:32.356Z,15.40
2022-08-25T21:11:25.330Z,15.40
2022-08-25T21:16:23.885Z,14.00
2022-08-25T21:20:03.154Z,13.60
2022-08-25T21:21:24.181Z,13.60
2022-08-25T21:26:25.214Z,14.80
2022-08-25T21:31:24.249Z,16.20
2022-08-25T21:36:24.764Z,13.20
2022-08-25T21:39:33.486Z,12.40
2022-08-25T21:41:26.118Z,12.40
2022-08-25T21:42:55.736Z,12.40
2022-08-25T21:46:25.844Z,13.60
2022-08-25T21:49:08.500Z,13.60
2022-08-25T21:50:24.610Z,11.00
2022-08-25T21:51:25.553Z,11.00
2022-08-25T21:56:22.992Z,16.60
2022-08-25T22:01:22.939Z,16.10
2022-08-25T22:04:21.782Z,19.60
2022-08-25T22:06:23.150Z,19.60
2022-08-25T22:11:23.343Z,14.00
2022-08-25T22:16:23.664Z,20.10
2022-08-25T22:21:22.857Z,17.10
2022-08-25T22:26:27.381Z,21.40
2022-08-25T22:31:24.384Z,20.40
2022-08-25T22:36:25.320Z,20.20
2022-08-25T22:41:24.332Z,15.40
2022-08-25T22:46:29.168Z,19.60
2022-08-25T22:51:25.989Z,20.80
2022-08-25T22:56:30.029Z,22.10
2022-08-25T23:01:23.403Z,15.90
2022-08-25T23:06:24.435Z,13.00
2022-08-25T23:11:23.810Z,18.30
2022-08-25T23:16:23.402Z,15.00
2022-08-25T23:21:35.190Z,13.90
2022-08-25T23:26:23.469Z,19.00
2022-08-25T23:31:23.816Z,12.50
2022-08-25T23:36:23.476Z,16.70
2022-08-25T23:41:24.360Z,14.90
2022-08-25T23:46:24.622Z,13.80
2022-08-25T23:48:48.100Z,14.40
2022-08-25T23:51:26.057Z,14.40
2022-08-25T23:56:23.121Z,16.90
